sensor_id;sensor_type;location;lat;lon;timestamp;temperature;humidity
40085;DHT22;25786;51.504;7.344;2022-07-03T00:00:37;20.10;59.00
40085;DHT22;25786;51.504;7.344;2022-07-03T00:03:03;20.00;59.50
40085;DHT22;25786;51.504;7.344;2022-07-03T00:05:28;19.90;60.20
40085;DHT22;25786;51.504;7.344;2022-07-03T00:07:54;19.90;61.00
40085;DHT22;25786;51.504;7.344;2022-07-03T00:10:19;19.80;61.50
40085;DHT22;25786;51.504;7.344;2022-07-03T00:12:45;19.70;61.60
40085;DHT22;25786;51.504;7.344;2022-07-03T00:15:10;19.60;61.90
40085;DHT22;25786;51.504;7.344;2022-07-03T00:17:36;19.40;61.80
40085;DHT22;25786;51.504;7.344;2022-07-03T00:20:02;19.40;62.70
40085;DHT22;25786;51.504;7.344;2022-07-03T00:22:27;19.50;62.90
40085;DHT22;25786;51.504;7.344;2022-07-03T00:25:02;19.40;62.70
40085;DHT22;25786;51.504;7.344;2022-07-03T00:27:27;19.30;63.10
40085;DHT22;25786;51.504;7.344;2022-07-03T00:29:55;19.30;63.50
40085;DHT22;25786;51.504;7.344;2022-07-03T00:32:22;19.30;63.30
40085;DHT22;25786;51.504;7.344;2022-07-03T00:34:50;19.20;63.90
40085;DHT22;25786;51.504;7.344;2022-07-03T00:37:16;19.20;64.40
40085;DHT22;25786;51.504;7.344;2022-07-03T00:39:41;19.10;65.00
40085;DHT22;25786;51.504;7.344;2022-07-03T00:42:08;19.20;64.30
40085;DHT22;25786;51.504;7.344;2022-07-03T00:44:50;19.20;63.90
40085;DHT22;25786;51.504;7.344;2022-07-03T00:47:25;19.20;63.40
40085;DHT22;25786;51.504;7.344;2022-07-03T00:49:52;19.20;63.50
40085;DHT22;25786;51.504;7.344;2022-07-03T00:52:18;19.20;64.70
40085;DHT22;25786;51.504;7.344;2022-07-03T00:54:45;19.10;64.50
40085;DHT22;25786;51.504;7.344;2022-07-03T00:57:15;19.10;65.10
40085;DHT22;25786;51.504;7.344;2022-07-03T00:59:41;19.00;65.10
40085;DHT22;25786;51.504;7.344;2022-07-03T01:02:08;19.00;65.20
40085;DHT22;25786;51.504;7.344;2022-07-03T01:04:40;19.10;65.20
40085;DHT22;25786;51.504;7.344;2022-07-03T01:17:48;19.10;64.20
40085;DHT22;25786;51.504;7.344;2022-07-03T01:20:20;18.90;65.60
40085;DHT22;25786;51.504;7.344;2022-07-03T01:22:49;18.50;66.40
40085;DHT22;25786;51.504;7.344;2022-07-03T01:28:06;18.20;67.60
40085;DHT22;25786;51.504;7.344;2022-07-03T01:30:34;18.20;68.00
40085;DHT22;25786;51.504;7.344;2022-07-03T01:33:21;18.30;67.90
40085;DHT22;25786;51.504;7.344;2022-07-03T01:35:54;18.30;69.10
40085;DHT22;25786;51.504;7.344;2022-07-03T01:38:22;18.30;68.00
40085;DHT22;25786;51.504;7.344;2022-07-03T01:40:47;18.40;67.70
40085;DHT22;25786;51.504;7.344;2022-07-03T01:43:14;18.40;68.40
40085;DHT22;25786;51.504;7.344;2022-07-03T01:45:43;18.40;68.40
40085;DHT22;25786;51.504;7.344;2022-07-03T01:48:09;18.40;68.50
40085;DHT22;25786;51.504;7.344;2022-07-03T01:50:36;18.30;67.60
40085;DHT22;25786;51.504;7.344;2022-07-03T01:53:02;18.40;67.10
40085;DHT22;25786;51.504;7.344;2022-07-03T01:55:29;18.40;67.40
40085;DHT22;25786;51.504;7.344;2022-07-03T01:57:55;18.40;67.60
40085;DHT22;25786;51.504;7.344;2022-07-03T02:00:21;18.30;67.00
40085;DHT22;25786;51.504;7.344;2022-07-03T02:02:52;18.30;68.00
40085;DHT22;25786;51.504;7.344;2022-07-03T02:07:47;18.10;68.70
40085;DHT22;25786;51.504;7.344;2022-07-03T02:10:17;18.10;68.50
40085;DHT22;25786;51.504;7.344;2022-07-03T02:12:49;18.10;68.50
40085;DHT22;25786;51.504;7.344;2022-07-03T02:15:17;17.90;69.80
40085;DHT22;25786;51.504;7.344;2022-07-03T02:17:45;17.90;69.40
40085;DHT22;25786;51.504;7.344;2022-07-03T02:20:12;17.90;69.40
40085;DHT22;25786;51.504;7.344;2022-07-03T02:22:40;17.90;69.90
40085;DHT22;25786;51.504;7.344;2022-07-03T02:27:42;17.80;70.00
40085;DHT22;25786;51.504;7.344;2022-07-03T02:30:08;17.80;70.50
40085;DHT22;25786;51.504;7.344;2022-07-03T02:32:43;17.80;70.00
40085;DHT22;25786;51.504;7.344;2022-07-03T02:35:13;17.80;70.70
40085;DHT22;25786;51.504;7.344;2022-07-03T02:37:47;17.70;71.40
40085;DHT22;25786;51.504;7.344;2022-07-03T02:40:20;17.70;71.60
40085;DHT22;25786;51.504;7.344;2022-07-03T02:42:58;17.70;71.30
40085;DHT22;25786;51.504;7.344;2022-07-03T02:48:18;17.80;70.50
40085;DHT22;25786;51.504;7.344;2022-07-03T02:50:47;17.90;70.50
40085;DHT22;25786;51.504;7.344;2022-07-03T02:53:26;17.90;70.20
40085;DHT22;25786;51.504;7.344;2022-07-03T02:55:57;17.90;70.40
40085;DHT22;25786;51.504;7.344;2022-07-03T03:03:45;17.90;71.50
40085;DHT22;25786;51.504;7.344;2022-07-03T03:06:14;18.00;70.40
40085;DHT22;25786;51.504;7.344;2022-07-03T03:11:06;18.10;70.00
40085;DHT22;25786;51.504;7.344;2022-07-03T03:13:32;18.10;70.30
40085;DHT22;25786;51.504;7.344;2022-07-03T03:16:02;18.10;70.40
40085;DHT22;25786;51.504;7.344;2022-07-03T03:18:29;18.00;70.40
40085;DHT22;25786;51.504;7.344;2022-07-03T03:20:56;18.00;70.70
40085;DHT22;25786;51.504;7.344;2022-07-03T03:26:08;17.70;71.40
40085;DHT22;25786;51.504;7.344;2022-07-03T03:28:33;17.60;71.60
40085;DHT22;25786;51.504;7.344;2022-07-03T03:30:59;17.60;71.60
40085;DHT22;25786;51.504;7.344;2022-07-03T03:33:25;17.60;71.40
40085;DHT22;25786;51.504;7.344;2022-07-03T03:35:51;17.60;71.80
40085;DHT22;25786;51.504;7.344;2022-07-03T03:38:16;17.60;72.20
40085;DHT22;25786;51.504;7.344;2022-07-03T03:40:43;17.60;71.90
40085;DHT22;25786;51.504;7.344;2022-07-03T03:43:08;17.60;72.30
40085;DHT22;25786;51.504;7.344;2022-07-03T03:45:34;17.50;72.30
40085;DHT22;25786;51.504;7.344;2022-07-03T03:48:00;17.60;72.20
40085;DHT22;25786;51.504;7.344;2022-07-03T03:50:25;17.50;72.70
40085;DHT22;25786;51.504;7.344;2022-07-03T03:52:51;17.40;73.20
40085;DHT22;25786;51.504;7.344;2022-07-03T03:55:16;17.50;72.80
40085;DHT22;25786;51.504;7.344;2022-07-03T03:57:42;17.60;72.70
40085;DHT22;25786;51.504;7.344;2022-07-03T04:00:08;17.60;72.40
40085;DHT22;25786;51.504;7.344;2022-07-03T04:02:33;17.70;72.40
40085;DHT22;25786;51.504;7.344;2022-07-03T04:04:59;17.60;72.40
40085;DHT22;25786;51.504;7.344;2022-07-03T04:07:24;17.70;72.50
40085;DHT22;25786;51.504;7.344;2022-07-03T04:09:50;17.80;72.10
40085;DHT22;25786;51.504;7.344;2022-07-03T04:12:15;17.90;72.10
40085;DHT22;25786;51.504;7.344;2022-07-03T04:14:41;18.00;72.00
40085;DHT22;25786;51.504;7.344;2022-07-03T04:17:06;18.10;72.20
40085;DHT22;25786;51.504;7.344;2022-07-03T04:19:32;18.20;72.20
40085;DHT22;25786;51.504;7.344;2022-07-03T04:21:57;18.30;72.20
40085;DHT22;25786;51.504;7.344;2022-07-03T04:24:23;18.30;72.40
40085;DHT22;25786;51.504;7.344;2022-07-03T04:26:49;18.30;72.10
40085;DHT22;25786;51.504;7.344;2022-07-03T04:29:14;18.30;72.10
40085;DHT22;25786;51.504;7.344;2022-07-03T04:31:40;18.40;71.70
40085;DHT22;25786;51.504;7.344;2022-07-03T04:34:05;18.40;72.10
40085;DHT22;25786;51.504;7.344;2022-07-03T04:36:30;18.40;72.40
40085;DHT22;25786;51.504;7.344;2022-07-03T04:38:56;18.50;72.50
40085;DHT22;25786;51.504;7.344;2022-07-03T04:41:21;18.50;72.00
40085;DHT22;25786;51.504;7.344;2022-07-03T04:43:47;18.50;71.10
40085;DHT22;25786;51.504;7.344;2022-07-03T04:46:12;18.60;70.80
40085;DHT22;25786;51.504;7.344;2022-07-03T04:48:38;18.50;71.00
40085;DHT22;25786;51.504;7.344;2022-07-03T04:51:03;18.60;71.60
40085;DHT22;25786;51.504;7.344;2022-07-03T04:53:29;18.80;70.10
40085;DHT22;25786;51.504;7.344;2022-07-03T04:55:54;18.90;68.40
40085;DHT22;25786;51.504;7.344;2022-07-03T04:58:20;19.00;67.10
40085;DHT22;25786;51.504;7.344;2022-07-03T05:00:45;19.10;66.60
40085;DHT22;25786;51.504;7.344;2022-07-03T05:03:12;19.30;65.00
40085;DHT22;25786;51.504;7.344;2022-07-03T05:05:37;19.40;64.50
40085;DHT22;25786;51.504;7.344;2022-07-03T05:08:03;19.40;64.40
40085;DHT22;25786;51.504;7.344;2022-07-03T05:10:28;19.40;65.40
40085;DHT22;25786;51.504;7.344;2022-07-03T05:12:54;19.50;64.90
40085;DHT22;25786;51.504;7.344;2022-07-03T05:15:19;19.40;64.80
40085;DHT22;25786;51.504;7.344;2022-07-03T05:17:45;19.40;64.60
40085;DHT22;25786;51.504;7.344;2022-07-03T05:20:11;19.50;64.40
40085;DHT22;25786;51.504;7.344;2022-07-03T05:22:49;19.50;64.40
40085;DHT22;25786;51.504;7.344;2022-07-03T05:25:15;19.50;64.40
40085;DHT22;25786;51.504;7.344;2022-07-03T05:27:40;19.60;65.00
40085;DHT22;25786;51.504;7.344;2022-07-03T05:30:06;19.60;65.20
40085;DHT22;25786;51.504;7.344;2022-07-03T05:32:32;19.80;65.10
40085;DHT22;25786;51.504;7.344;2022-07-03T05:34:57;20.10;63.50
40085;DHT22;25786;51.504;7.344;2022-07-03T05:37:22;20.10;63.40
40085;DHT22;25786;51.504;7.344;2022-07-03T05:39:48;20.20;63.40
40085;DHT22;25786;51.504;7.344;2022-07-03T05:42:13;20.30;62.60
40085;DHT22;25786;51.504;7.344;2022-07-03T05:44:39;20.50;61.70
40085;DHT22;25786;51.504;7.344;2022-07-03T05:47:04;20.60;61.10
40085;DHT22;25786;51.504;7.344;2022-07-03T05:49:30;20.80;61.00
40085;DHT22;25786;51.504;7.344;2022-07-03T05:51:55;20.90;61.30
40085;DHT22;25786;51.504;7.344;2022-07-03T05:54:20;21.00;60.70
40085;DHT22;25786;51.504;7.344;2022-07-03T05:56:46;21.00;61.00
40085;DHT22;25786;51.504;7.344;2022-07-03T05:59:11;20.90;61.50
40085;DHT22;25786;51.504;7.344;2022-07-03T06:01:37;20.70;62.10
40085;DHT22;25786;51.504;7.344;2022-07-03T06:04:02;20.50;62.60
40085;DHT22;25786;51.504;7.344;2022-07-03T06:06:28;20.40;62.50
40085;DHT22;25786;51.504;7.344;2022-07-03T06:08:53;20.20;63.00
40085;DHT22;25786;51.504;7.344;2022-07-03T06:11:19;20.20;62.90
40085;DHT22;25786;51.504;7.344;2022-07-03T06:13:44;20.10;62.10
40085;DHT22;25786;51.504;7.344;2022-07-03T06:16:09;20.10;62.00
40085;DHT22;25786;51.504;7.344;2022-07-03T06:18:35;19.90;62.80
40085;DHT22;25786;51.504;7.344;2022-07-03T06:21:00;19.90;63.20
40085;DHT22;25786;51.504;7.344;2022-07-03T06:23:26;19.90;62.90
40085;DHT22;25786;51.504;7.344;2022-07-03T06:25:51;19.90;63.40
40085;DHT22;25786;51.504;7.344;2022-07-03T06:28:17;20.00;63.60
40085;DHT22;25786;51.504;7.344;2022-07-03T06:30:43;20.20;62.20
40085;DHT22;25786;51.504;7.344;2022-07-03T06:33:08;20.30;61.60
40085;DHT22;25786;51.504;7.344;2022-07-03T06:35:33;20.40;61.40
40085;DHT22;25786;51.504;7.344;2022-07-03T06:38:02;20.50;60.70
40085;DHT22;25786;51.504;7.344;2022-07-03T06:40:28;20.60;60.60
40085;DHT22;25786;51.504;7.344;2022-07-03T06:42:54;20.70;60.00
40085;DHT22;25786;51.504;7.344;2022-07-03T06:45:19;20.90;60.20
40085;DHT22;25786;51.504;7.344;2022-07-03T06:47:44;20.90;59.90
40085;DHT22;25786;51.504;7.344;2022-07-03T06:50:10;21.00;59.50
40085;DHT22;25786;51.504;7.344;2022-07-03T06:52:35;21.10;59.50
40085;DHT22;25786;51.504;7.344;2022-07-03T06:55:01;21.10;58.80
40085;DHT22;25786;51.504;7.344;2022-07-03T06:57:26;21.20;58.90
40085;DHT22;25786;51.504;7.344;2022-07-03T06:59:52;21.30;58.00
40085;DHT22;25786;51.504;7.344;2022-07-03T07:02:17;21.30;58.10
40085;DHT22;25786;51.504;7.344;2022-07-03T07:04:43;21.40;56.60
40085;DHT22;25786;51.504;7.344;2022-07-03T07:07:08;21.60;56.20
40085;DHT22;25786;51.504;7.344;2022-07-03T07:09:35;21.60;56.20
40085;DHT22;25786;51.504;7.344;2022-07-03T07:12:01;21.60;56.70
40085;DHT22;25786;51.504;7.344;2022-07-03T07:14:26;21.50;56.70
40085;DHT22;25786;51.504;7.344;2022-07-03T07:16:52;21.50;56.20
40085;DHT22;25786;51.504;7.344;2022-07-03T07:19:17;21.60;56.80
40085;DHT22;25786;51.504;7.344;2022-07-03T07:21:42;21.60;55.90
40085;DHT22;25786;51.504;7.344;2022-07-03T07:24:08;21.80;55.40
40085;DHT22;25786;51.504;7.344;2022-07-03T07:26:33;21.70;55.40
40085;DHT22;25786;51.504;7.344;2022-07-03T07:28:59;21.80;56.10
40085;DHT22;25786;51.504;7.344;2022-07-03T07:31:24;21.90;55.80
40085;DHT22;25786;51.504;7.344;2022-07-03T07:33:49;22.00;56.20
40085;DHT22;25786;51.504;7.344;2022-07-03T07:36:15;22.10;56.00
40085;DHT22;25786;51.504;7.344;2022-07-03T07:38:41;22.10;55.10
40085;DHT22;25786;51.504;7.344;2022-07-03T07:41:06;22.10;55.00
40085;DHT22;25786;51.504;7.344;2022-07-03T07:43:31;22.20;55.00
40085;DHT22;25786;51.504;7.344;2022-07-03T07:45:57;22.20;54.70
40085;DHT22;25786;51.504;7.344;2022-07-03T07:48:22;22.20;55.40
40085;DHT22;25786;51.504;7.344;2022-07-03T07:50:48;22.30;54.40
40085;DHT22;25786;51.504;7.344;2022-07-03T07:53:15;22.40;54.50
40085;DHT22;25786;51.504;7.344;2022-07-03T07:55:40;22.40;54.70
40085;DHT22;25786;51.504;7.344;2022-07-03T07:58:06;22.40;54.90
40085;DHT22;25786;51.504;7.344;2022-07-03T08:00:32;22.50;54.30
40085;DHT22;25786;51.504;7.344;2022-07-03T08:02:57;22.50;54.80
40085;DHT22;25786;51.504;7.344;2022-07-03T08:05:41;22.50;53.90
40085;DHT22;25786;51.504;7.344;2022-07-03T08:08:16;22.60;52.80
40085;DHT22;25786;51.504;7.344;2022-07-03T08:10:43;22.80;52.90
40085;DHT22;25786;51.504;7.344;2022-07-03T08:13:09;22.80;53.30
40085;DHT22;25786;51.504;7.344;2022-07-03T08:15:34;22.80;52.90
40085;DHT22;25786;51.504;7.344;2022-07-03T08:18:00;22.90;53.20
40085;DHT22;25786;51.504;7.344;2022-07-03T08:20:26;23.00;52.60
40085;DHT22;25786;51.504;7.344;2022-07-03T08:22:52;23.10;52.20
40085;DHT22;25786;51.504;7.344;2022-07-03T08:25:17;23.10;52.40
40085;DHT22;25786;51.504;7.344;2022-07-03T08:27:43;23.20;52.50
40085;DHT22;25786;51.504;7.344;2022-07-03T08:30:09;23.20;52.30
40085;DHT22;25786;51.504;7.344;2022-07-03T08:32:34;23.10;52.30
40085;DHT22;25786;51.504;7.344;2022-07-03T08:34:59;23.30;51.60
40085;DHT22;25786;51.504;7.344;2022-07-03T08:37:28;23.30;50.90
40085;DHT22;25786;51.504;7.344;2022-07-03T08:39:53;23.40;51.60
40085;DHT22;25786;51.504;7.344;2022-07-03T08:42:19;23.40;51.90
40085;DHT22;25786;51.504;7.344;2022-07-03T08:44:45;23.40;51.60
40085;DHT22;25786;51.504;7.344;2022-07-03T08:47:11;23.50;51.50
40085;DHT22;25786;51.504;7.344;2022-07-03T08:49:37;23.50;50.90
40085;DHT22;25786;51.504;7.344;2022-07-03T08:52:03;23.50;51.40
40085;DHT22;25786;51.504;7.344;2022-07-03T08:54:29;23.60;51.60
40085;DHT22;25786;51.504;7.344;2022-07-03T08:56:54;23.70;50.80
40085;DHT22;25786;51.504;7.344;2022-07-03T08:59:21;23.80;50.50
40085;DHT22;25786;51.504;7.344;2022-07-03T09:01:48;23.80;51.10
40085;DHT22;25786;51.504;7.344;2022-07-03T09:04:14;23.70;50.50
40085;DHT22;25786;51.504;7.344;2022-07-03T09:06:40;23.70;50.30
40085;DHT22;25786;51.504;7.344;2022-07-03T09:09:06;23.60;50.90
40085;DHT22;25786;51.504;7.344;2022-07-03T09:11:32;23.90;51.20
40085;DHT22;25786;51.504;7.344;2022-07-03T09:13:57;24.00;50.30
40085;DHT22;25786;51.504;7.344;2022-07-03T09:16:23;24.00;49.70
40085;DHT22;25786;51.504;7.344;2022-07-03T09:18:48;24.00;50.50
40085;DHT22;25786;51.504;7.344;2022-07-03T09:21:13;24.00;50.50
40085;DHT22;25786;51.504;7.344;2022-07-03T09:23:41;24.00;51.10
40085;DHT22;25786;51.504;7.344;2022-07-03T09:26:14;24.10;50.50
40085;DHT22;25786;51.504;7.344;2022-07-03T09:31:08;24.10;51.00
40085;DHT22;25786;51.504;7.344;2022-07-03T09:33:34;24.00;50.80
40085;DHT22;25786;51.504;7.344;2022-07-03T09:36:00;24.00;50.90
40085;DHT22;25786;51.504;7.344;2022-07-03T09:38:25;24.00;51.80
40085;DHT22;25786;51.504;7.344;2022-07-03T09:40:54;24.00;50.90
40085;DHT22;25786;51.504;7.344;2022-07-03T09:43:23;24.20;51.00
40085;DHT22;25786;51.504;7.344;2022-07-03T09:48:25;24.30;50.10
40085;DHT22;25786;51.504;7.344;2022-07-03T09:56:10;24.30;50.00
40085;DHT22;25786;51.504;7.344;2022-07-03T09:58:35;24.40;50.10
40085;DHT22;25786;51.504;7.344;2022-07-03T10:01:19;24.40;49.70
40085;DHT22;25786;51.504;7.344;2022-07-03T10:03:48;24.50;51.20
40085;DHT22;25786;51.504;7.344;2022-07-03T10:06:14;24.70;48.90
40085;DHT22;25786;51.504;7.344;2022-07-03T10:08:39;25.00;49.00
40085;DHT22;25786;51.504;7.344;2022-07-03T10:11:06;25.00;48.90
40085;DHT22;25786;51.504;7.344;2022-07-03T10:13:32;25.00;48.30
40085;DHT22;25786;51.504;7.344;2022-07-03T10:15:58;24.90;49.00
40085;DHT22;25786;51.504;7.344;2022-07-03T10:18:25;25.00;48.90
40085;DHT22;25786;51.504;7.344;2022-07-03T10:20:51;25.00;48.60
40085;DHT22;25786;51.504;7.344;2022-07-03T10:23:21;25.20;47.80
40085;DHT22;25786;51.504;7.344;2022-07-03T10:25:46;25.40;47.50
40085;DHT22;25786;51.504;7.344;2022-07-03T10:28:15;25.40;47.30
40085;DHT22;25786;51.504;7.344;2022-07-03T10:30:42;25.40;47.40
40085;DHT22;25786;51.504;7.344;2022-07-03T10:33:08;25.50;48.00
40085;DHT22;25786;51.504;7.344;2022-07-03T10:35:34;25.60;47.40
40085;DHT22;25786;51.504;7.344;2022-07-03T10:40:30;25.30;47.30
40085;DHT22;25786;51.504;7.344;2022-07-03T10:43:19;25.30;47.30
40085;DHT22;25786;51.504;7.344;2022-07-03T10:46:11;25.20;47.50
40085;DHT22;25786;51.504;7.344;2022-07-03T10:51:22;25.50;47.50
40085;DHT22;25786;51.504;7.344;2022-07-03T10:53:48;25.40;46.90
40085;DHT22;25786;51.504;7.344;2022-07-03T10:56:13;25.50;47.40
40085;DHT22;25786;51.504;7.344;2022-07-03T10:58:55;25.70;47.20
40085;DHT22;25786;51.504;7.344;2022-07-03T11:01:30;26.00;46.00
40085;DHT22;25786;51.504;7.344;2022-07-03T11:03:59;26.30;45.50
40085;DHT22;25786;51.504;7.344;2022-07-03T11:09:16;26.50;44.40
40085;DHT22;25786;51.504;7.344;2022-07-03T11:11:42;26.40;44.80
40085;DHT22;25786;51.504;7.344;2022-07-03T11:14:21;26.50;44.50
40085;DHT22;25786;51.504;7.344;2022-07-03T11:16:46;26.40;44.20
40085;DHT22;25786;51.504;7.344;2022-07-03T11:19:12;26.20;44.80
40085;DHT22;25786;51.504;7.344;2022-07-03T11:21:40;26.00;45.20
40085;DHT22;25786;51.504;7.344;2022-07-03T11:29:36;26.10;44.40
40085;DHT22;25786;51.504;7.344;2022-07-03T11:32:25;26.20;45.50
40085;DHT22;25786;51.504;7.344;2022-07-03T11:34:47;26.20;44.80
40085;DHT22;25786;51.504;7.344;2022-07-03T11:37:19;26.30;44.50
40085;DHT22;25786;51.504;7.344;2022-07-03T11:39:44;26.50;44.90
40085;DHT22;25786;51.504;7.344;2022-07-03T11:42:10;26.60;44.80
40085;DHT22;25786;51.504;7.344;2022-07-03T11:44:35;26.60;44.50
40085;DHT22;25786;51.504;7.344;2022-07-03T11:47:01;26.70;44.40
40085;DHT22;25786;51.504;7.344;2022-07-03T11:49:26;26.80;44.20
40085;DHT22;25786;51.504;7.344;2022-07-03T11:51:57;26.80;44.10
40085;DHT22;25786;51.504;7.344;2022-07-03T11:54:23;26.60;43.90
40085;DHT22;25786;51.504;7.344;2022-07-03T11:56:49;26.50;43.60
40085;DHT22;25786;51.504;7.344;2022-07-03T11:59:14;26.50;43.70
40085;DHT22;25786;51.504;7.344;2022-07-03T12:01:40;26.50;42.80
40085;DHT22;25786;51.504;7.344;2022-07-03T12:04:15;26.60;41.60
40085;DHT22;25786;51.504;7.344;2022-07-03T12:06:42;26.60;42.10
40085;DHT22;25786;51.504;7.344;2022-07-03T12:09:27;26.50;41.70
40085;DHT22;25786;51.504;7.344;2022-07-03T12:12:04;26.50;42.90
40085;DHT22;25786;51.504;7.344;2022-07-03T12:14:37;26.60;41.10
40085;DHT22;25786;51.504;7.344;2022-07-03T12:17:03;26.50;42.10
40085;DHT22;25786;51.504;7.344;2022-07-03T12:19:29;26.60;42.60
40085;DHT22;25786;51.504;7.344;2022-07-03T12:21:54;26.70;41.90
40085;DHT22;25786;51.504;7.344;2022-07-03T12:24:19;26.60;42.80
40085;DHT22;25786;51.504;7.344;2022-07-03T12:26:45;26.70;43.10
40085;DHT22;25786;51.504;7.344;2022-07-03T12:29:13;26.50;42.20
40085;DHT22;25786;51.504;7.344;2022-07-03T12:31:39;26.40;41.50
40085;DHT22;25786;51.504;7.344;2022-07-03T12:34:05;26.30;41.10
40085;DHT22;25786;51.504;7.344;2022-07-03T12:36:31;26.20;41.50
40085;DHT22;25786;51.504;7.344;2022-07-03T12:38:57;26.30;41.90
40085;DHT22;25786;51.504;7.344;2022-07-03T12:41:23;26.50;40.40
40085;DHT22;25786;51.504;7.344;2022-07-03T12:43:49;26.60;40.00
40085;DHT22;25786;51.504;7.344;2022-07-03T12:46:16;26.60;39.10
40085;DHT22;25786;51.504;7.344;2022-07-03T12:48:49;26.70;39.20
40085;DHT22;25786;51.504;7.344;2022-07-03T12:51:15;26.90;38.50
40085;DHT22;25786;51.504;7.344;2022-07-03T12:53:41;27.00;38.70
40085;DHT22;25786;51.504;7.344;2022-07-03T12:56:08;27.00;38.40
40085;DHT22;25786;51.504;7.344;2022-07-03T12:58:34;27.00;38.70
40085;DHT22;25786;51.504;7.344;2022-07-03T13:01:25;27.20;38.50
40085;DHT22;25786;51.504;7.344;2022-07-03T13:03:51;27.10;39.60
40085;DHT22;25786;51.504;7.344;2022-07-03T13:06:17;27.10;39.80
40085;DHT22;25786;51.504;7.344;2022-07-03T13:08:58;27.10;40.80
40085;DHT22;25786;51.504;7.344;2022-07-03T13:11:34;27.30;40.90
40085;DHT22;25786;51.504;7.344;2022-07-03T13:14:09;27.30;40.60
40085;DHT22;25786;51.504;7.344;2022-07-03T13:16:36;27.10;40.70
40085;DHT22;25786;51.504;7.344;2022-07-03T13:19:03;27.00;41.20
40085;DHT22;25786;51.504;7.344;2022-07-03T13:21:29;26.70;41.60
40085;DHT22;25786;51.504;7.344;2022-07-03T13:23:55;26.60;42.10
40085;DHT22;25786;51.504;7.344;2022-07-03T13:26:20;26.60;41.50
40085;DHT22;25786;51.504;7.344;2022-07-03T13:28:46;26.60;41.10
40085;DHT22;25786;51.504;7.344;2022-07-03T13:31:11;26.60;41.00
40085;DHT22;25786;51.504;7.344;2022-07-03T13:33:37;26.50;41.40
40085;DHT22;25786;51.504;7.344;2022-07-03T13:36:02;26.30;41.90
40085;DHT22;25786;51.504;7.344;2022-07-03T13:38:28;26.30;41.60
40085;DHT22;25786;51.504;7.344;2022-07-03T13:40:53;26.50;42.20
40085;DHT22;25786;51.504;7.344;2022-07-03T13:43:19;26.50;41.70
40085;DHT22;25786;51.504;7.344;2022-07-03T13:45:44;26.60;41.00
40085;DHT22;25786;51.504;7.344;2022-07-03T13:48:10;26.80;41.40
40085;DHT22;25786;51.504;7.344;2022-07-03T13:50:35;26.90;40.20
40085;DHT22;25786;51.504;7.344;2022-07-03T13:53:01;26.60;41.00
40085;DHT22;25786;51.504;7.344;2022-07-03T13:55:26;26.40;41.90
40085;DHT22;25786;51.504;7.344;2022-07-03T13:57:52;26.30;41.80
40085;DHT22;25786;51.504;7.344;2022-07-03T14:00:17;26.30;42.70
40085;DHT22;25786;51.504;7.344;2022-07-03T14:02:43;26.30;42.70
40085;DHT22;25786;51.504;7.344;2022-07-03T14:05:08;26.20;42.90
40085;DHT22;25786;51.504;7.344;2022-07-03T14:07:34;26.10;44.00
40085;DHT22;25786;51.504;7.344;2022-07-03T14:10:00;26.20;44.00
40085;DHT22;25786;51.504;7.344;2022-07-03T14:12:25;26.40;43.70
40085;DHT22;25786;51.504;7.344;2022-07-03T14:14:50;26.50;43.40
40085;DHT22;25786;51.504;7.344;2022-07-03T14:17:16;26.50;42.50
40085;DHT22;25786;51.504;7.344;2022-07-03T14:19:41;26.60;42.00
40085;DHT22;25786;51.504;7.344;2022-07-03T14:22:07;26.50;41.90
40085;DHT22;25786;51.504;7.344;2022-07-03T14:24:32;26.50;41.80
40085;DHT22;25786;51.504;7.344;2022-07-03T14:26:58;26.60;41.70
40085;DHT22;25786;51.504;7.344;2022-07-03T14:29:42;26.60;41.60
40085;DHT22;25786;51.504;7.344;2022-07-03T14:32:26;26.70;41.60
40085;DHT22;25786;51.504;7.344;2022-07-03T14:34:54;26.80;41.60
40085;DHT22;25786;51.504;7.344;2022-07-03T14:37:20;27.00;41.40
40085;DHT22;25786;51.504;7.344;2022-07-03T14:39:46;27.00;41.40
40085;DHT22;25786;51.504;7.344;2022-07-03T14:42:12;27.00;40.80
40085;DHT22;25786;51.504;7.344;2022-07-03T14:44:37;27.20;40.60
40085;DHT22;25786;51.504;7.344;2022-07-03T14:47:03;27.40;40.80
40085;DHT22;25786;51.504;7.344;2022-07-03T14:49:29;27.60;40.60
40085;DHT22;25786;51.504;7.344;2022-07-03T14:51:54;27.60;39.60
40085;DHT22;25786;51.504;7.344;2022-07-03T14:54:20;27.50;40.00
40085;DHT22;25786;51.504;7.344;2022-07-03T14:56:55;27.40;39.80
40085;DHT22;25786;51.504;7.344;2022-07-03T15:00:06;27.10;40.10
40085;DHT22;25786;51.504;7.344;2022-07-03T15:02:06;27.00;40.40
40085;DHT22;25786;51.504;7.344;2022-07-03T15:04:49;26.60;41.30
40085;DHT22;25786;51.504;7.344;2022-07-03T15:07:20;26.50;40.90
40085;DHT22;25786;51.504;7.344;2022-07-03T15:09:48;26.30;41.70
40085;DHT22;25786;51.504;7.344;2022-07-03T15:12:17;26.40;41.90
40085;DHT22;25786;51.504;7.344;2022-07-03T15:14:53;26.30;42.30
40085;DHT22;25786;51.504;7.344;2022-07-03T15:17:22;26.30;42.60
40085;DHT22;25786;51.504;7.344;2022-07-03T15:19:48;26.30;43.20
40085;DHT22;25786;51.504;7.344;2022-07-03T15:22:15;26.40;42.40
40085;DHT22;25786;51.504;7.344;2022-07-03T15:24:40;26.30;43.20
40085;DHT22;25786;51.504;7.344;2022-07-03T15:27:06;26.50;43.00
40085;DHT22;25786;51.504;7.344;2022-07-03T15:29:32;26.40;42.90
40085;DHT22;25786;51.504;7.344;2022-07-03T15:32:03;26.40;43.80
40085;DHT22;25786;51.504;7.344;2022-07-03T15:34:28;26.50;43.70
40085;DHT22;25786;51.504;7.344;2022-07-03T15:39:37;26.10;43.60
40085;DHT22;25786;51.504;7.344;2022-07-03T15:44:38;26.00;43.70
40085;DHT22;25786;51.504;7.344;2022-07-03T15:47:11;26.00;43.80
40085;DHT22;25786;51.504;7.344;2022-07-03T15:49:41;26.00;44.70
40085;DHT22;25786;51.504;7.344;2022-07-03T15:52:20;26.00;44.70
40085;DHT22;25786;51.504;7.344;2022-07-03T15:57:24;26.10;44.80
40085;DHT22;25786;51.504;7.344;2022-07-03T15:59:51;26.10;43.60
40085;DHT22;25786;51.504;7.344;2022-07-03T16:02:23;26.00;43.70
40085;DHT22;25786;51.504;7.344;2022-07-03T16:05:06;26.00;45.20
40085;DHT22;25786;51.504;7.344;2022-07-03T16:07:36;25.80;43.90
40085;DHT22;25786;51.504;7.344;2022-07-03T16:10:03;25.60;44.50
40085;DHT22;25786;51.504;7.344;2022-07-03T16:12:28;25.50;44.90
40085;DHT22;25786;51.504;7.344;2022-07-03T16:14:55;25.50;44.50
40085;DHT22;25786;51.504;7.344;2022-07-03T16:17:22;25.40;44.00
40085;DHT22;25786;51.504;7.344;2022-07-03T16:19:48;25.20;44.30
40085;DHT22;25786;51.504;7.344;2022-07-03T16:22:14;25.10;44.50
40085;DHT22;25786;51.504;7.344;2022-07-03T16:24:40;25.20;44.50
40085;DHT22;25786;51.504;7.344;2022-07-03T16:27:06;25.30;44.20
40085;DHT22;25786;51.504;7.344;2022-07-03T16:29:31;25.30;45.10
40085;DHT22;25786;51.504;7.344;2022-07-03T16:32:01;25.30;44.20
40085;DHT22;25786;51.504;7.344;2022-07-03T16:34:37;25.20;44.50